Tiempo atmosférico en la estación meteorológica de Seira, Huesca (825 m.)



Fecha
DESCASC
Temp. máxima en grados centígrados (hora)
DESCASC
Temp. mínima en grados centígrados (hora)
DESCASC
Temp. media en grados centígrados
DESCASC
Racha de viento máxima en m/sg (hora)
DESCASC
Velocidad máxima media en intervalos de 10 minutos(hora)
DESCASC
Precipitaciones diarias en mm
DESCASC
Precipitaciones de 00:00 a 06:00 en mm
DESCASC
Precipitaciones de 06:00 a 12:00 en mm
DESCASC
Precipitaciones de 12:00 a 18:00 en mm
DESCASC
Precipitaciones de 18:00 a 24:00 en mm
DESCASC
13-10-2019 23.8 (17:00) 12.2 (04:20) 18 6.11 (15:30) 3.33 (15:30) 0 0 0 0 0
12-10-2019 23.4 (16:00) 11.5 (04:40) 17.4 5.28 (16:20) 2.78 (16:20) 0 0 0 0 0
11-10-2019 25.8 (16:40) 6.1 (08:00) 15.9 8.06 (14:30) 4.44 (14:20) 0 0 0 0 0
10-10-2019 21.6 (16:20) 7 (00:00) 14.3 8.33 (14:10) 5 (14:10) 0 0 0 0 0
09-10-2019 23.6 (15:00) 10 (00:00) 16.8 7.5 (13:30) 3.06 (15:10) 0 0 0 0 0
08-10-2019 25.1 (16:30) 9.1 (00:00) 17.1 8.33 (14:10) 5 (14:10) 0 0 0 0 0
07-10-2019 23.7 (17:00) 6.2 (00:00) 15 8.33 (16:00) 4.17 (16:00) 0 0 0 0 0
06-10-2019 22 (15:10) 8 (00:00) 15 8.89 (20:40) 4.72 (14:50) 0 0 0 0 0
05-10-2019 25.2 (15:50) 8.1 (00:00) 16.7 7.22 (14:00) 4.17 (15:00) 0 0 0 0 0
04-10-2019 25.3 (17:10) 5.7 (00:00) 15.5 6.94 (17:50) 3.89 (13:50) 0 0 0 0 0
03-10-2019 23.7 (17:00) 5.1 (00:00) 14.4 7.5 (16:40) 4.44 (16:50) 0 0 0 0 0
02-10-2019 22.6 (16:30) 7.5 (00:00) 15.1 11.67 (14:50) 4.44 (14:20) 0 0 0 0 0
01-10-2019 27.1 (15:20) 9.9 (00:00) 18.5 6.94 (15:50) 3.06 (15:50) 0 0 0 0 0
30-09-2019 27.9 (15:50) 9.4 (00:00) 18.6 6.11 (17:00) 2.5 (17:00) 0 0 0 0 0
29-09-2019 27.7 (15:40) 8.8 (00:00) 18.3 7.5 (17:00) 3.06 (17:00) 0 0 0 0 0
28-09-2019 25.2 (16:50) 8.4 (00:00) 16.8 6.11 (12:50) 3.33 (12:50) 0 0 0 0 0
27-09-2019 26.8 (16:10) 10.4 (00:00) 18.6 6.11 (14:30) 3.33 (17:10) 0 0 0 0 0
26-09-2019 25.4 (16:50) 9.8 (00:00) 17.6 6.67 (14:40) 4.17 (14:40) 0 0 0 0 0
25-09-2019 23.1 (15:50) 9.7 (00:00) 16.4 7.5 (14:10) 3.89 (13:40) 0 0 0 0 0
24-09-2019 26.4 (16:30) 9.1 (00:00) 17.8 10 (19:00) 3.89 (19:00) 0 0 0 0 0
23-09-2019 21.3 (16:20) 8.9 (00:00) 15.1 6.94 (14:40) 3.61 (15:10) 0 0 0 0 0
22-09-2019 21.1 (14:20) 12.8 (00:00) 17 5.83 (12:40) 2.78 (14:20) 26.4 10.4 5.6 10.4 0
21-09-2019 23.1 (15:50) 13.6 (00:00) 18.4 5 (14:00) 2.5 (14:20) 0.2 0 0 0.2 0
20-09-2019 25 (17:20) 12.9 (00:00) 18.9 6.94 (16:20) 4.17 (16:20) 1 1 0 0 0
19-09-2019 26 (17:00) 12.2 (00:00) 19.1 7.78 (13:00) 3.06 (12:30) 18 0 0 0 18
18-09-2019 28 (15:10) 14.3 (00:00) 21.2 11.67 (18:50) 4.72 (19:00) 0 0 0 0 0
17-09-2019 28.6 (17:00) 14.1 (00:00) 21.4 8.06 (14:30) 3.33 (14:00) 0 0 0 0 0
16-09-2019 28.4 (16:10) 14.1 (00:00) 21.3 8.89 (15:10) 4.44 (15:00) 0 0 0 0 0
15-09-2019 28.9 (14:40) 14.2 (00:00) 21.5 9.72 (16:00) 4.72 (16:20) 2.8 0.8 2 0 0

Gráficas

Temp. máximas Temp. mínimas Temp. medias Precipitaciones Rachas de viento máximas Velocidades máximas media en intervalos de 10 minutos

Datos horarios

Fecha y hora oficial Temperatura (ºC) Velocidad del viento (km/h) Dirección del viento Racha (km/h) Dirección de racha Precipitación (mm) Presión (hPa) Tendencia (hPa) Humedad (%)
2019-10-14 23:00:00 12.3 5 Sudoeste 11 Sur 0.2 -- -- 98
2019-10-14 22:00:00 12.8 0 Calma 6 Sudeste 0.2 -- -- 98
2019-10-14 21:00:00 13.1 0 Calma 9 Nordeste 2.2 -- -- 98
2019-10-14 20:00:00 13.4 2 Sudeste 8 Sur 1.6 -- -- 98
2019-10-14 19:00:00 13.8 3 Sur 6 Sur 0 -- -- 97
2019-10-14 18:00:00 14.7 0 Calma 4 Sudeste 0 -- -- 94
2019-10-14 17:00:00 14.9 0 Calma 6 Sudeste 0.2 -- -- 96
2019-10-14 16:00:00 14.2 3 Sudeste 14 Sudoeste 1.8 -- -- 97
2019-10-14 15:00:00 14.4 2 Sudeste 12 Sudoeste 4.2 -- -- 96
2019-10-14 14:00:00 14.3 2 Nordeste 6 Sur 1.6 -- -- 98
2019-10-14 13:00:00 14 3 Sudoeste 7 Oeste 0.8 -- -- 94
2019-10-14 12:00:00 14.1 4 Sudoeste 10 Sur 0.2 -- -- 90
2019-10-14 11:00:00 13.6 3 Norte 8 Sudoeste 0 -- -- 94
2019-10-14 10:00:00 12.5 0 Calma 3 Sudoeste 0 -- -- 94
2019-10-14 09:00:00 11.1 0 Calma 5 Norte 0 -- -- 94
2019-10-14 08:00:00 11.5 0 Calma 6 Este 0 -- -- 90
2019-10-14 07:00:00 12 0 Calma 3 Este 0 -- -- 89
2019-10-14 06:00:00 12.1 0 Calma 4 Norte 0 -- -- 91
2019-10-14 05:00:00 12.8 2 Sur 5 Sur 0 -- -- 93
2019-10-14 04:00:00 14.1 0 Calma 4 Este 0 -- -- 90
2019-10-14 03:00:00 14.2 2 Sudoeste 5 Sudoeste 0 -- -- 89
2019-10-14 02:00:00 13.9 0 Calma 5 Sudoeste 0 -- -- 89
2019-10-14 01:00:00 13.8 0 Calma 5 Sudoeste 0 -- -- 87
2019-10-14 00:00:00 13.9 0 Calma 4 Sudeste 0 -- -- 86
2019-10-13 23:00:00 14 0 Calma 3 Sudoeste 0 -- -- 85
2019-10-13 22:00:00 14.3 0 Calma 4 Sur 0 -- -- 82
2019-10-13 21:00:00 15.1 0 Calma 4 Sur 0 -- -- 79
2019-10-13 20:00:00 16.7 0 Calma 4 Nordeste 0 -- -- 73
2019-10-13 19:00:00 19.5 3 Sudeste 8 Oeste 0 -- -- 63
2019-10-13 18:00:00 23.2 2 Oeste 15 Sudoeste 0 -- -- 53
2019-10-13 17:00:00 23.8 9 Sudoeste 20 Sudoeste 0 -- -- 49
2019-10-13 16:00:00 22.8 12 Sudoeste 22 Sudoeste 0 -- -- 53
2019-10-13 15:00:00 22.1 6 Sudoeste 18 Sudoeste 0 -- -- 55
2019-10-13 14:00:00 21.8 6 Sudoeste 18 Oeste 0 -- -- 57
2019-10-13 13:00:00 19.6 3 Norte 6 Norte 0 -- -- 65
2019-10-13 12:00:00 17.9 0 Calma 4 Norte 0 -- -- 71
2019-10-13 11:00:00 15.9 0 Calma 4 Sudeste 0 -- -- 86
2019-10-13 10:00:00 14.1 2 Sudoeste 4 Sur 0 -- -- 90
2019-10-13 09:00:00 13.3 0 Calma 2 Sur 0 -- -- 92
2019-10-13 08:00:00 13 0 Calma 4 Norte 0 -- -- 93
2019-10-13 07:00:00 12.9 0 Calma 2 Norte 0 -- -- 93
2019-10-13 06:00:00 12.6 0 Calma 4 Sur 0 -- -- 94
2019-10-13 05:00:00 12.3 0 Calma 3 Sudeste 0 -- -- 94
2019-10-13 04:00:00 12.5 0 Calma 4 Sur 0 -- -- 93
2019-10-13 03:00:00 12.6 3 Norte 5 Nordeste 0 -- -- 93
2019-10-13 02:00:00 12.8 0 Calma 4 Oeste 0 -- -- 92
2019-10-13 01:00:00 12.8 0 Calma 3 Sur 0 -- -- 91
2019-10-13 00:00:00 13.2 0 Calma 4 Noroeste 0 -- -- 90
2019-10-12 23:00:00 14.1 0 Calma 4 Sudeste 0 -- -- 85
2019-10-12 22:00:00 14.9 0 Calma 3 Sur 0 -- -- 82
2019-10-12 21:00:00 16.3 0 Calma 3 Este 0 -- -- 78
2019-10-12 20:00:00 18 0 Calma 5 Nordeste 0 -- -- 72
2019-10-12 19:00:00 20.2 0 Calma 10 Sudoeste 0 -- -- 67
2019-10-12 18:00:00 22.2 4 Sudoeste 15 Sudoeste 0 -- -- 57
2019-10-12 17:00:00 22.7 5 Sudoeste 19 Sudoeste 0 -- -- 53
2019-10-12 16:00:00 23.4 4 Sudoeste 13 Sur 0 -- -- 53
2019-10-12 15:00:00 21.8 2 Nordeste 10 Norte 0 -- -- 63
2019-10-12 14:00:00 20.5 3 Sudoeste 12 Sur 0 -- -- 68
2019-10-12 13:00:00 19.5 3 Sur 12 Sudoeste 0 -- -- 68
2019-10-12 12:00:00 17.8 2 Sudoeste 5 Sudoeste 0 -- -- 74
2019-10-12 11:00:00 15.4 0 Calma 5 Sur 0 -- -- 81
2019-10-12 10:00:00 13.4 0 Calma 3 Sur 0 -- -- 86
2019-10-12 09:00:00 12.1 0 Calma 4 Este 0 -- -- 91
2019-10-12 08:00:00 11.7 0 Calma 4 Este 0 -- -- 89
2019-10-12 07:00:00 12 0 Calma 4 Sur 0 -- -- 87
2019-10-12 06:00:00 11.6 0 Calma 4 Sur 0 -- -- 89
2019-10-12 05:00:00 11.8 0 Calma 3 Sur 0 -- -- 88
2019-10-12 04:00:00 12.2 0 Calma 4 Sudoeste 0 -- -- 85
2019-10-12 03:00:00 13.4 0 Calma 4 Nordeste 0 -- -- 80
2019-10-12 02:00:00 14.6 0 Calma 5 Norte 0 -- -- 75
2019-10-12 01:00:00 14.8 0 Calma 4 Sudeste 0 -- -- 75
2019-10-12 00:00:00 13.9 0 Calma 4 Sur 0 -- -- 80
2019-10-11 23:00:00 13.8 0 Calma 3 Sudeste 0 -- -- 78
2019-10-11 22:00:00 14.5 0 Calma 3 Sur 0 -- -- 76
2019-10-11 21:00:00 15.5 0 Calma 3 Noroeste 0 -- -- 71
2019-10-11 20:00:00 16.9 0 Calma 4 Sudeste 0 -- -- 67
2019-10-11 19:00:00 20.5 2 Sudeste 10 Sudoeste 0 -- -- 56
2019-10-11 18:00:00 24.6 6 Sudoeste 18 Oeste 0 -- -- 43
2019-10-11 17:00:00 25.8 6 Sudoeste 22 Sudoeste 0 -- -- 41
2019-10-11 16:00:00 25.6 7 Sudoeste 19 Oeste 0 -- -- 39
2019-10-11 15:00:00 24.3 9 Sudoeste 29 Sudoeste 0 -- -- 42
2019-10-11 14:00:00 22.8 4 Noroeste 16 Sudoeste 0 -- -- 43
2019-10-11 13:00:00 19.4 2 Sur 10 Sudoeste 0 -- -- 51
2019-10-11 12:00:00 13.2 2 Norte 4 Sur 0 -- -- 67
2019-10-11 11:00:00 10 2 Nordeste 8 Nordeste 0 -- -- 79
2019-10-11 10:00:00 7.2 2 Sur 8 Noroeste 0 -- -- 92
2019-10-11 09:00:00 6.3 2 Sudoeste 6 Noroeste 0 -- -- 93
2019-10-11 08:00:00 6.1 0 Calma 4 Noroeste 0 -- -- 92
2019-10-11 07:00:00 6.5 0 Calma 6 Norte 0 -- -- 91
2019-10-11 06:00:00 6.8 0 Calma 4 Oeste 0 -- -- 91
2019-10-11 05:00:00 7 0 Calma 3 Sur 0 -- -- 90
2019-10-11 04:00:00 7.5 0 Calma 9 Norte 0 -- -- 89
2019-10-11 03:00:00 7.7 0 Calma 2 Sur 0 -- -- 88
2019-10-11 02:00:00 7.8 0 Calma 4 Sur 0 -- -- 88
2019-10-11 01:00:00 8.4 0 Calma 3 Sur 0 -- -- 86
2019-10-11 00:00:00 8.9 0 Calma 2 Nordeste 0 -- -- 84
2019-10-10 23:00:00 9.7 0 Calma 2 Nordeste 0 -- -- 83
2019-10-10 22:00:00 10.7 0 Calma 4 Sudeste 0 -- -- 78
2019-10-10 21:00:00 12.1 0 Calma 4 Nordeste 0 -- -- 74
2019-10-10 20:00:00 14.2 0 Calma 6 Sudeste 0 -- -- 67
2019-10-10 19:00:00 18.3 2 Sudoeste 21 Sudoeste 0 -- -- 53
2019-10-10 18:00:00 20.6 9 Sudoeste 19 Sudoeste 0 -- -- 45
2019-10-10 17:00:00 21.6 9 Sudoeste 25 Sudoeste 0 -- -- 44
2019-10-10 16:00:00 21.3 13 Sudoeste 27 Sudoeste 0 -- -- 45
2019-10-10 15:00:00 20.9 12 Sudoeste 30 Sudoeste 0 -- -- 46
2019-10-10 14:00:00 19.8 15 Sudoeste 27 Sudoeste 0 -- -- 48
2019-10-10 13:00:00 18.1 5 Oeste 16 Sudoeste 0 -- -- 54
2019-10-10 12:00:00 13.2 3 Nordeste 10 Sur 0 -- -- 75
2019-10-10 11:00:00 9.6 0 Calma 4 Sudoeste 0 -- -- 90
2019-10-10 10:00:00 7.8 0 Calma 3 Sudeste 0 -- -- 95
2019-10-10 09:00:00 7.2 0 Calma 3 Sur 0 -- -- 96
2019-10-10 08:00:00 7.2 0 Calma 3 Sudoeste 0 -- -- 94
2019-10-10 07:00:00 7.7 0 Calma 3 Nordeste 0 -- -- 95
2019-10-10 06:00:00 8 0 Calma 4 Sudeste 0 -- -- 94
2019-10-10 05:00:00 8.3 0 Calma 3 Este 0 -- -- 93
2019-10-10 04:00:00 8.8 0 Calma 4 Sur 0 -- -- 94
2019-10-10 03:00:00 9.3 0 Calma 3 Sur 0 -- -- 91
2019-10-10 02:00:00 9.9 0 Calma 2 Sur 0 -- -- 91
2019-10-10 01:00:00 10.6 0 Calma 2 Sur 0 -- -- 88
2019-10-10 00:00:00 11.6 0 Calma 2 Sudeste 0 -- -- 86
2019-10-09 23:00:00 12.7 0 Calma 3 Sudeste 0 -- -- 81
2019-10-09 22:00:00 14.1 0 Calma 4 Este 0 -- -- 77
2019-10-09 21:00:00 16.4 2 Sudeste 15 Sudoeste 0 -- -- 70
2019-10-09 20:00:00 19.5 10 Sudoeste 23 Sudoeste 0 -- -- 61
2019-10-09 19:00:00 20.2 5 Sudoeste 17 Sudoeste 0 -- -- 61
2019-10-09 18:00:00 20.6 6 Sudoeste 19 Sur 0 -- -- 61
2019-10-09 17:00:00 20.8 5 Sur 15 Sur 0 -- -- 60
2019-10-09 16:00:00 22 6 Sudoeste 24 Sudoeste 0 -- -- 56
2019-10-09 15:00:00 23.6 9 Sur 27 Sudoeste 0 -- -- 48
2019-10-09 14:00:00 22.9 9 Sudoeste 27 Sudeste 0 -- -- 49
2019-10-09 13:00:00 21.7 8 Sudoeste 19 Sur 0 -- -- 54
2019-10-09 12:00:00 16.4 0 Calma 7 Norte 0 -- -- 71
2019-10-09 11:00:00 13.2 0 Calma 3 Norte 0 -- -- 84
2019-10-09 10:00:00 11.2 2 Sudeste 3 Sur 0 -- -- 89
2019-10-09 09:00:00 10.6 2 Sur 4 Sudeste 0 -- -- 89
2019-10-09 08:00:00 10.2 0 Calma 4 Este 0 -- -- 89
2019-10-09 07:00:00 10 2 Sur 5 Sudeste 0 -- -- 89
2019-10-09 06:00:00 10.2 0 Calma 5 Norte 0 -- -- 87
2019-10-09 05:00:00 10.5 0 Calma 5 Noroeste 0 -- -- 86
2019-10-09 04:00:00 10.8 0 Calma 3 Sur 0 -- -- 86
2019-10-09 03:00:00 11.1 2 Sur 4 Sudeste 0 -- -- 84
2019-10-09 02:00:00 11.4 0 Calma 3 Sudeste 0 -- -- 83
2019-10-09 01:00:00 11.9 0 Calma 3 Sur 0 -- -- 82
2019-10-09 00:00:00 12.6 0 Calma 3 Sudeste 0 -- -- 80
2019-10-08 23:00:00 13.2 0 Calma 3 Sur 0 -- -- 78
2019-10-08 22:00:00 14.3 0 Calma 3 Este 0 -- -- 74
2019-10-08 21:00:00 15.5 0 Calma 3 Sudeste 0 -- -- 70
2019-10-08 20:00:00 17.4 0 Calma 3 Sudeste 0 -- -- 63
2019-10-08 19:00:00 21.8 0 Calma 19 Sudoeste 0 -- -- 49
2019-10-08 18:00:00 24.4 5 Sudoeste 24 Sudoeste 0 -- -- 41
2019-10-08 17:00:00 25 16 Sudoeste 26 Sudoeste 0 -- -- 39
2019-10-08 16:00:00 24.9 13 Sudoeste 27 Sudoeste 0 -- -- 41
2019-10-08 15:00:00 24.6 12 Sudoeste 30 Sudoeste 0 -- -- 43
2019-10-08 14:00:00 23.7 17 Sudoeste 29 Sudoeste 0 -- -- 44
2019-10-08 13:00:00 22.2 2 Sur 18 Sudeste 0 -- -- 50
2019-10-08 12:00:00 17.1 3 Norte 8 Oeste 0 -- -- 67
2019-10-08 11:00:00 12.7 0 Calma 5 Noroeste 0 -- -- 84
2019-10-08 10:00:00 9.8 0 Calma 4 Sur 0 -- -- 93
2019-10-08 09:00:00 9.3 0 Calma 3 Sudeste 0 -- -- 91
2019-10-08 08:00:00 9.4 0 Calma 5 Sur 0 -- -- 92
2019-10-08 07:00:00 9.8 0 Calma 5 Sur 0 -- -- 89
2019-10-08 06:00:00 10.3 2 Nordeste 5 Sur 0 -- -- 87
2019-10-08 05:00:00 10.7 0 Calma 5 Norte 0 -- -- 85
2019-10-08 04:00:00 11.1 0 Calma 4 Sur 0 -- -- 83
2019-10-08 03:00:00 11.5 0 Calma 4 Sur 0 -- -- 82
2019-10-08 02:00:00 11.9 0 Calma 4 Nordeste 0 -- -- 81
2019-10-08 01:00:00 12.2 0 Calma 3 Sur 0 -- -- 79
2019-10-08 00:00:00 12.9 0 Calma 4 Sur 0 -- -- 76
2019-10-07 23:00:00 14 2 Nordeste 4 Sudeste 0 -- -- 71
2019-10-07 22:00:00 14.7 0 Calma 5 Sur 0 -- -- 68
2019-10-07 21:00:00 16.2 2 Sudeste 8 Sudeste 0 -- -- 62
2019-10-07 20:00:00 18 4 Sudeste 10 Sudeste 0 -- -- 54
2019-10-07 19:00:00 20.2 3 Sudeste 6 Sur 0 -- -- 52
2019-10-07 18:00:00 22.3 0 Calma 22 Sudoeste 0 -- -- 37
2019-10-07 17:00:00 23.7 12 Sudoeste 28 Sudoeste 0 -- -- 30
2019-10-07 16:00:00 22.7 15 Sudoeste 30 Sudoeste 0 -- -- 32
2019-10-07 15:00:00 21.7 8 Sudoeste 20 Sudoeste 0 -- -- 33
2019-10-07 14:00:00 20.1 3 Sudeste 14 Sudoeste 0 -- -- 38
2019-10-07 13:00:00 19 3 Sudoeste 8 Oeste 0 -- -- 42
2019-10-07 12:00:00 14.2 4 Sudoeste 9 Sudoeste 0 -- -- 51
2019-10-07 11:00:00 9.6 0 Calma 6 Norte 0 -- -- 63
2019-10-07 10:00:00 6.6 2 Sudeste 5 Sudeste 0 -- -- 78
2019-10-07 09:00:00 6.3 3 Este 6 Norte 0 -- -- 74
2019-10-07 08:00:00 6.9 3 Sudeste 8 Noroeste 0 -- -- 70
2019-10-07 07:00:00 7.9 2 Sudeste 5 Sudeste 0 -- -- 65
2019-10-07 06:00:00 9.5 3 Sudeste 6 Norte 0 -- -- 59
2019-10-07 05:00:00 11.1 2 Sudoeste 8 Sudeste 0 -- -- 53
2019-10-07 04:00:00 12.7 3 Norte 21 Oeste 0 -- -- 48
2019-10-07 03:00:00 16.3 8 Nordeste 27 Norte 0 -- -- 36
2019-10-07 02:00:00 16.6 11 Norte 27 Norte 0 -- -- 36
2019-10-07 01:00:00 16.8 5 Norte 18 Sudoeste 0 -- -- 37
2019-10-07 00:00:00 16.4 6 Nordeste 21 Norte 0 -- -- 40
2019-10-06 23:00:00 15.1 7 Nordeste 27 Noroeste 0 -- -- 51
2019-10-06 22:00:00 13.9 4 Este 10 Sudeste 0 -- -- 69
2019-10-06 21:00:00 15.3 2 Nordeste 32 Oeste 0 -- -- 67
2019-10-06 20:00:00 16.2 0 Calma 5 Sudeste 0 -- -- 68
2019-10-06 19:00:00 20.3 0 Calma 19 Sudoeste 0 -- -- 56
2019-10-06 18:00:00 21.5 7 Sudoeste 22 Sudoeste 0 -- -- 51
2019-10-06 17:00:00 21.8 12 Sudoeste 26 Sudoeste 0 -- -- 51
2019-10-06 16:00:00 20.9 8 Sudoeste 26 Sudoeste 0 -- -- 53
2019-10-06 15:00:00 21.5 16 Sudoeste 30 Sudoeste 0 -- -- 50
2019-10-06 14:00:00 20.5 10 Sudoeste 18 Sudoeste 0 -- -- 54
2019-10-06 13:00:00 18.3 4 Sur 12 Sur 0 -- -- 62
2019-10-06 12:00:00 14.6 0 Calma 4 Sudoeste 0 -- -- 74
2019-10-06 11:00:00 12 0 Calma 6 Norte 0 -- -- 82
2019-10-06 10:00:00 9.5 0 Calma 5 Noroeste 0 -- -- 93
2019-10-06 09:00:00 8.3 0 Calma 11 Norte 0 -- -- 94
2019-10-06 08:00:00 8.2 0 Calma 6 Nordeste 0 -- -- 94
2019-10-06 07:00:00 8.6 0 Calma 5 Este 0 -- -- 92
2019-10-06 06:00:00 9 0 Calma 4 Oeste 0 -- -- 92
2019-10-06 05:00:00 9.6 2 Sur 6 Nordeste 0 -- -- 90
2019-10-06 04:00:00 9.8 0 Calma 5 Sur 0 -- -- 91
2019-10-06 03:00:00 10.5 0 Calma 3 Sudeste 0 -- -- 88
2019-10-06 02:00:00 10.5 0 Calma 3 Sudeste 0 -- -- 90
2019-10-06 01:00:00 11 0 Calma 3 Norte 0 -- -- 88
2019-10-06 00:00:00 11.6 0 Calma 3 Norte 0 -- -- 86
2019-10-05 23:00:00 12.4 0 Calma 2 Este 0 -- -- 83
2019-10-05 22:00:00 13.5 0 Calma 3 Sur 0 -- -- 79
2019-10-05 21:00:00 15.1 0 Calma 3 Sudeste 0 -- -- 74
2019-10-05 20:00:00 17.3 2 Oeste 8 Sudoeste 0 -- -- 67
2019-10-05 19:00:00 21.4 5 Sudoeste 22 Sudoeste 0 -- -- 53
2019-10-05 18:00:00 23.8 9 Sudoeste 25 Sudoeste 0 -- -- 46
2019-10-05 17:00:00 25.1 10 Sudoeste 24 Sudoeste 0 -- -- 44
2019-10-05 16:00:00 25.2 12 Sudoeste 26 Sudoeste 0 -- -- 43
2019-10-05 15:00:00 24.2 15 Sudoeste 26 Sur 0 -- -- 43
2019-10-05 14:00:00 22.9 15 Sudoeste 26 Sudoeste 0 -- -- 48
2019-10-05 13:00:00 20.9 3 Sur 14 Sur 0 -- -- 59
2019-10-05 12:00:00 15.1 0 Calma 5 Oeste 0 -- -- 72
2019-10-05 11:00:00 11.5 2 Norte 6 Nordeste 0 -- -- 81
2019-10-05 10:00:00 9.1 2 Nordeste 6 Este 0 -- -- 92
2019-10-05 09:00:00 8.2 0 Calma 8 Norte 0 -- -- 93
2019-10-05 08:00:00 8.4 0 Calma 4 Sudeste 0 -- -- 92
2019-10-05 07:00:00 8.8 0 Calma 4 Norte 0 -- -- 92
2019-10-05 06:00:00 9.2 0 Calma 5 Nordeste 0 -- -- 92
2019-10-05 05:00:00 9.5 0 Calma 6 Oeste 0 -- -- 91
2019-10-05 04:00:00 10.1 0 Calma 4 Sudeste 0 -- -- 90
2019-10-05 03:00:00 10.4 2 Sudoeste 6 Nordeste 0 -- -- 90
2019-10-05 02:00:00 10.9 0 Calma 3 Sudeste 0 -- -- 89
2019-10-05 01:00:00 11.6 0 Calma 4 Norte 0 -- -- 87
2019-10-05 00:00:00 12.4 2 Sur 4 Norte 0 -- -- 85
2019-10-04 23:00:00 13.3 0 Calma 4 Este 0 -- -- 81
2019-10-04 22:00:00 14.5 0 Calma 4 Este 0 -- -- 77
2019-10-04 21:00:00 16.3 3 Sudeste 4 Sudeste 0 -- -- 69
2019-10-04 20:00:00 18 0 Calma 9 Sur 0 -- -- 66
2019-10-04 19:00:00 22 5 Sudoeste 24 Sudoeste 0 -- -- 53
2019-10-04 18:00:00 23.7 9 Sudoeste 25 Sudoeste 0 -- -- 45
2019-10-04 17:00:00 25.2 5 Sudoeste 23 Sudoeste 0 -- -- 39
2019-10-04 16:00:00 25 7 Sur 23 Sudoeste 0 -- -- 35
2019-10-04 15:00:00 23.9 10 Sudoeste 24 Sur 0 -- -- 36
2019-10-04 14:00:00 22.9 14 Sudoeste 23 Sudoeste 0 -- -- 36
2019-10-04 13:00:00 19.9 3 Este 12 Sur 0 -- -- 44
2019-10-04 12:00:00 13.8 0 Calma 5 Nordeste 0 -- -- 57
2019-10-04 11:00:00 9.8 2 Norte 6 Norte 0 -- -- 73
2019-10-04 10:00:00 7.2 0 Calma 10 Noroeste 0 -- -- 80
2019-10-04 09:00:00 6.1 0 Calma 6 Noroeste 0 -- -- 82
2019-10-04 08:00:00 5.9 0 Calma 5 Sur 0 -- -- 82
2019-10-04 07:00:00 6 0 Calma 5 Norte 0 -- -- 81
2019-10-04 06:00:00 6.6 0 Calma 6 Norte 0 -- -- 79
2019-10-04 05:00:00 7.2 0 Calma 4 Oeste 0 -- -- 80
2019-10-04 04:00:00 7.8 0 Calma 5 Sur 0 -- -- 76
2019-10-04 03:00:00 8.3 0 Calma 8 Nordeste 0 -- -- 77
2019-10-04 02:00:00 8.7 0 Calma 5 Nordeste 0 -- -- 74
2019-10-04 01:00:00 9.3 0 Calma 4 Sur 0 -- -- 73
2019-10-04 00:00:00 10.5 0 Calma 4 Oeste 0 -- -- 70
2019-10-03 23:00:00 10.4 0 Calma 4 Sudeste 0 -- -- 72
2019-10-03 22:00:00 11.4 0 Calma 3 Norte 0 -- -- 69
2019-10-03 21:00:00 12.9 0 Calma 3 Sudeste 0 -- -- 64
2019-10-03 20:00:00 14.8 0 Calma 5 Nordeste 0 -- -- 57
2019-10-03 19:00:00 19.4 4 Sur 16 Oeste 0 -- -- 45
2019-10-03 18:00:00 23.1 7 Sudoeste 24 Sudoeste 0 -- -- 33
2019-10-03 17:00:00 23.7 15 Sudoeste 27 Sudoeste 0 -- -- 30
2019-10-03 16:00:00 23.6 12 Sudoeste 24 Sudoeste 0 -- -- 28
2019-10-03 15:00:00 22.5 13 Sudoeste 20 Sur 0 -- -- 30
2019-10-03 14:00:00 20.7 4 Sur 11 Sudoeste 0 -- -- 38
2019-10-03 13:00:00 17.1 4 Sur 9 Sur 0 -- -- 42
2019-10-03 12:00:00 11.2 2 Norte 10 Noroeste 0 -- -- 47
2019-10-03 11:00:00 9.7 3 Norte 12 Norte 0 -- -- 56
2019-10-03 10:00:00 7.7 0 Calma 11 Norte 0 -- -- 71
2019-10-03 09:00:00 5.8 0 Calma 8 Noroeste 0 -- -- 73
2019-10-03 08:00:00 5.1 0 Calma 12 Norte 0 -- -- 73
2019-10-03 07:00:00 5.5 0 Calma 7 Norte 0 -- -- 73
2019-10-03 06:00:00 5.6 2 Sudoeste 7 Sudoeste 0 -- -- 71
2019-10-03 05:00:00 6.1 0 Calma 5 Sur 0 -- -- 68
2019-10-03 04:00:00 7 2 Sur 5 Sudoeste 0 -- -- 68
2019-10-03 03:00:00 7.9 0 Calma 5 Sur 0 -- -- 64
2019-10-03 02:00:00 9.5 0 Calma 5 Sur 0 -- -- 61
2019-10-03 01:00:00 10.5 0 Calma 8 Noroeste 0 -- -- 56
2019-10-03 00:00:00 11.2 3 Este 6 Este 0 -- -- 56
2019-10-02 23:00:00 13.4 2 Nordeste 15 Sudeste 0 -- -- 54
2019-10-02 22:00:00 14.4 3 Sur 9 Sudoeste 0 -- -- 48
2019-10-02 21:00:00 15.3 3 Nordeste 15 Norte 0 -- -- 50
2019-10-02 20:00:00 16.7 4 Sudeste 29 Nordeste 0 -- -- 47
2019-10-02 19:00:00 18.7 12 Noroeste 35 Noroeste 0 -- -- 40
2019-10-02 18:00:00 20.7 10 Noroeste 28 Norte 0 -- -- 36
2019-10-02 17:00:00 21.5 10 Norte 24 Norte 0 -- -- 36
2019-10-02 16:00:00 22.4 9 Sudoeste 40 Sudoeste 0 -- -- 33
2019-10-02 15:00:00 21.9 11 Sudoeste 42 Sur 0 -- -- 35
2019-10-02 14:00:00 21.4 8 Norte 28 Sudoeste 0 -- -- 41
2019-10-02 13:00:00 19.1 3 Este 7 Sudoeste 0 -- -- 52
2019-10-02 12:00:00 16 3 Sudoeste 8 Sudoeste 0 -- -- 62
2019-10-02 11:00:00 13.2 0 Calma 7 Sudoeste 0 -- -- 65
2019-10-02 10:00:00 9.3 2 Norte 9 Noroeste 0 -- -- 78
2019-10-02 09:00:00 7.7 2 Sudeste 8 Sudeste 0 -- -- 81
2019-10-02 08:00:00 7.5 3 Sur 8 Sudeste 0 -- -- 80
2019-10-02 07:00:00 8.3 2 Este 6 Oeste 0 -- -- 74
2019-10-02 06:00:00 9.3 3 Este 8 Norte 0 -- -- 71
2019-10-02 05:00:00 9.2 2 Sur 9 Noroeste 0 -- -- 71
2019-10-02 04:00:00 9.8 2 Sudeste 6 Sudeste 0 -- -- 68
2019-10-02 03:00:00 10.2 0 Calma 6 Noroeste 0 -- -- 68
2019-10-02 02:00:00 10.1 3 Sudeste 6 Noroeste 0 -- -- 73
2019-10-02 01:00:00 10.5 2 Nordeste 9 Noroeste 0 -- -- 77
2019-10-02 00:00:00 11.1 2 Este 7 Norte 0 -- -- 76
2019-10-01 23:00:00 12 0 Calma 5 Sudeste 0 -- -- 76
2019-10-01 22:00:00 13.7 0 Calma 4 Nordeste 0 -- -- 69
2019-10-01 21:00:00 15.6 3 Sudeste 6 Sudeste 0 -- -- 62
2019-10-01 20:00:00 16.3 3 Nordeste 8 Oeste 0 -- -- 73
2019-10-01 19:00:00 19 3 Nordeste 7 Sur 0 -- -- 75
2019-10-01 18:00:00 20.5 3 Sur 14 Sudoeste 0 -- -- 65
2019-10-01 17:00:00 20.7 5 Sudoeste 25 Sudoeste 0 -- -- 63
2019-10-01 16:00:00 25.4 8 Sudoeste 25 Sudoeste 0 -- -- 42
2019-10-01 15:00:00 26.6 10 Sudoeste 23 Sudoeste 0 -- -- 37
2019-10-01 14:00:00 25.9 8 Sudoeste 18 Sudeste 0 -- -- 39
2019-10-01 13:00:00 22 0 Calma 7 Noroeste 0 -- -- 54
2019-10-01 12:00:00 18.1 2 Norte 6 Nordeste 0 -- -- 63
2019-10-01 11:00:00 14.2 2 Norte 10 Nordeste 0 -- -- 73
2019-10-01 10:00:00 11.4 2 Nordeste 7 Norte 0 -- -- 84
2019-10-01 09:00:00 9.9 0 Calma 9 Este 0 -- -- 89
2019-10-01 08:00:00 10 0 Calma 8 Noroeste 0 -- -- 89
2019-10-01 07:00:00 10.4 0 Calma 10 Norte 0 -- -- 88
2019-10-01 06:00:00 10.8 0 Calma 11 Este 0 -- -- 86
2019-10-01 05:00:00 11.1 0 Calma 5 Oeste 0 -- -- 86
2019-10-01 04:00:00 11.7 0 Calma 8 Noroeste 0 -- -- 83
2019-10-01 03:00:00 12 0 Calma 3 Sur 0 -- -- 82
2019-10-01 02:00:00 12.4 0 Calma 4 Nordeste 0 -- -- 81
2019-10-01 01:00:00 12.9 0 Calma 4 Sudeste 0 -- -- 80
2019-10-01 00:00:00 13.5 2 Este 3 Sur 0 -- -- 77
2019-09-30 23:00:00 14.3 2 Sudeste 4 Sudoeste 0 -- -- 75
2019-09-30 22:00:00 15.5 0 Calma 3 Nordeste 0 -- -- 72
2019-09-30 21:00:00 17 0 Calma 4 Este 0 -- -- 67
2019-09-30 20:00:00 19.6 0 Calma 11 Sudeste 0 -- -- 58
2019-09-30 19:00:00 24.2 5 Sur 17 Sudoeste 0 -- -- 42
2019-09-30 18:00:00 26.1 6 Sur 21 Sudoeste 0 -- -- 40
2019-09-30 17:00:00 27.5 9 Sudoeste 22 Sudoeste 0 -- -- 37
2019-09-30 16:00:00 27.8 8 Sur 19 Sudoeste 0 -- -- 34
2019-09-30 15:00:00 27.4 6 Sur 19 Sudoeste 0 -- -- 36
2019-09-30 14:00:00 26.4 6 Sur 20 Sudoeste 0 -- -- 37
2019-09-30 13:00:00 22.9 3 Nordeste 9 Oeste 0 -- -- 49
2019-09-30 12:00:00 17.3 0 Calma 4 Nordeste 0 -- -- 60
2019-09-30 11:00:00 13.8 2 Nordeste 7 Nordeste 0 -- -- 71
2019-09-30 10:00:00 10.7 2 Nordeste 6 Nordeste 0 -- -- 82
2019-09-30 09:00:00 9.5 0 Calma 5 Oeste 0 -- -- 86
2019-09-30 08:00:00 9.4 0 Calma 6 Nordeste 0 -- -- 85
2019-09-30 07:00:00 9.9 2 Sudeste 8 Nordeste 0 -- -- 83
2019-09-30 06:00:00 10.3 0 Calma 7 Este 0 -- -- 82
2019-09-30 05:00:00 11.1 0 Calma 5 Nordeste 0 -- -- 79
2019-09-30 04:00:00 11.5 0 Calma 4 Nordeste 0 -- -- 79
2019-09-30 03:00:00 12.2 0 Calma 6 Sur 0 -- -- 75
2019-09-30 02:00:00 12.8 0 Calma 5 Nordeste 0 -- -- 73
2019-09-30 01:00:00 13 0 Calma 4 Sudeste 0 -- -- 76
2019-09-30 00:00:00 13.5 0 Calma 6 Sur 0 -- -- 75
2019-09-29 23:00:00 14.2 0 Calma 4 Sur 0 -- -- 70
2019-09-29 22:00:00 15.3 0 Calma 3 Sur 0 -- -- 67
2019-09-29 21:00:00 16.9 0 Calma 4 Oeste 0 -- -- 65
2019-09-29 20:00:00 19 0 Calma 4 Sudeste 0 -- -- 58
2019-09-29 19:00:00 24 0 Calma 18 Sudoeste 0 -- -- 44
2019-09-29 18:00:00 26.6 8 Sur 21 Sudoeste 0 -- -- 36
2019-09-29 17:00:00 27.6 11 Sur 27 Sur 0 -- -- 34
2019-09-29 16:00:00 27.6 8 Sudoeste 20 Sudoeste 0 -- -- 35
2019-09-29 15:00:00 27 8 Sudoeste 21 Sudoeste 0 -- -- 36
2019-09-29 14:00:00 25.6 8 Sur 20 Sudoeste 0 -- -- 39
2019-09-29 13:00:00 21.9 2 Norte 6 Norte 0 -- -- 53
2019-09-29 12:00:00 16.5 0 Calma 6 Norte 0 -- -- 64
2019-09-29 11:00:00 12.9 2 Norte 8 Norte 0 -- -- 77
2019-09-29 10:00:00 10.3 2 Nordeste 8 Norte 0 -- -- 88
2019-09-29 09:00:00 9 0 Calma 5 Oeste 0 -- -- 93
2019-09-29 08:00:00 9 0 Calma 6 Sur 0 -- -- 93
2019-09-29 07:00:00 9.3 2 Sur 9 Noroeste 0 -- -- 93
2019-09-29 06:00:00 9.7 2 Sur 6 Sudeste 0 -- -- 92
2019-09-29 05:00:00 10.1 0 Calma 4 Sudeste 0 -- -- 90
2019-09-29 04:00:00 10.6 0 Calma 4 Este 0 -- -- 90
2019-09-29 03:00:00 11.1 0 Calma 4 Sudeste 0 -- -- 89
2019-09-29 02:00:00 11.4 0 Calma 4 Sudeste 0 -- -- 88
2019-09-29 01:00:00 12.1 0 Calma 4 Norte 0 -- -- 86
2019-09-29 00:00:00 12.7 0 Calma 3 Sur 0 -- -- 85
2019-09-28 23:00:00 13.2 0 Calma 3 Nordeste 0 -- -- 84
2019-09-28 22:00:00 14.3 0 Calma 3 Sudeste 0 -- -- 80
2019-09-28 21:00:00 15.8 0 Calma 4 Sur 0 -- -- 76
2019-09-28 20:00:00 17.8 0 Calma 5 Sudeste 0 -- -- 69
2019-09-28 19:00:00 22.1 0 Calma 12 Sudoeste 0 -- -- 54
2019-09-28 18:00:00 24.1 7 Sudoeste 21 Sudoeste 0 -- -- 47
2019-09-28 17:00:00 25.2 6 Sudoeste 22 Sudoeste 0 -- -- 42
2019-09-28 16:00:00 25 6 Sur 22 Sudoeste 0 -- -- 44
2019-09-28 15:00:00 24.6 6 Sudoeste 20 Sudoeste 0 -- -- 44
2019-09-28 14:00:00 23.7 7 Sur 18 Sudoeste 0 -- -- 46
2019-09-28 13:00:00 21.7 10 Sudoeste 22 Sudoeste 0 -- -- 53
2019-09-28 12:00:00 16.1 3 Norte 5 Norte 0 -- -- 67
2019-09-28 11:00:00 12 0 Calma 5 Norte 0 -- -- 75
2019-09-28 10:00:00 9.6 0 Calma 6 Sudeste 0 -- -- 85
2019-09-28 09:00:00 8.6 0 Calma 4 Sur 0 -- -- 88
2019-09-28 08:00:00 8.6 0 Calma 5 Nordeste 0 -- -- 87
2019-09-28 07:00:00 9.2 0 Calma 6 Norte 0 -- -- 86
2019-09-28 06:00:00 9.8 0 Calma 9 Este 0 -- -- 83
2019-09-28 05:00:00 10 0 Calma 6 Sudeste 0 -- -- 85
2019-09-28 04:00:00 10.5 0 Calma 8 Noroeste 0 -- -- 83
2019-09-28 03:00:00 10.9 0 Calma 4 Sudeste 0 -- -- 82
2019-09-28 02:00:00 11.8 0 Calma 4 Sudoeste 0 -- -- 80
2019-09-28 01:00:00 12.5 0 Calma 3 Sudoeste 0 -- -- 79
2019-09-28 00:00:00 12.9 0 Calma 4 Sudeste 0 -- -- 76
2019-09-27 23:00:00 14 0 Calma 4 Este 0 -- -- 77
2019-09-27 22:00:00 15.6 0 Calma 5 Sudeste 0 -- -- 72
2019-09-27 21:00:00 17.1 0 Calma 4 Sur 0 -- -- 68
2019-09-27 20:00:00 20.5 0 Calma 13 Sur 0 -- -- 58
2019-09-27 19:00:00 23.3 3 Sur 18 Sur 0 -- -- 49
2019-09-27 18:00:00 24.8 6 Sur 21 Sudoeste 0 -- -- 44
2019-09-27 17:00:00 26.7 8 Sudoeste 22 Sur 0 -- -- 39
2019-09-27 16:00:00 26.6 6 Sur 22 Sudoeste 0 -- -- 38
2019-09-27 15:00:00 26.4 8 Sudoeste 22 Sudoeste 0 -- -- 37
2019-09-27 14:00:00 25.5 6 Sudoeste 18 Sur 0 -- -- 38
2019-09-27 13:00:00 23.4 4 Sur 9 Sur 0 -- -- 50
2019-09-27 12:00:00 17.5 0 Calma 4 Norte 0 -- -- 71
2019-09-27 11:00:00 14.1 0 Calma 10 Norte 0 -- -- 82
2019-09-27 10:00:00 11.7 0 Calma 9 Nordeste 0 -- -- 92
2019-09-27 09:00:00 10.5 0 Calma 0 Calma 0 -- -- 95
2019-09-27 08:00:00 10.6 0 Calma 0 Calma 0 -- -- 95
2019-09-27 07:00:00 10.8 0 Calma 0 Calma 0 -- -- 93
2019-09-27 06:00:00 11.1 0 Calma 5 Oeste 0 -- -- 92
2019-09-27 05:00:00 11.4 0 Calma 4 Sudeste 0 -- -- 93
2019-09-27 04:00:00 11.6 0 Calma 4 Sudeste 0 -- -- 92
2019-09-27 03:00:00 12 0 Calma 6 Nordeste 0 -- -- 91
2019-09-27 02:00:00 12.5 0 Calma 0 Calma 0 -- -- 91
2019-09-27 01:00:00 13.1 0 Calma 0 Calma 0 -- -- 88
2019-09-27 00:00:00 13.6 0 Calma 0 Calma 0 -- -- 87
2019-09-26 23:00:00 14.3 0 Calma 0 Calma 0 -- -- 84
2019-09-26 22:00:00 15.3 0 Calma 3 Sudeste 0 -- -- 81
2019-09-26 21:00:00 16.5 0 Calma 3 Nordeste 0 -- -- 78
2019-09-26 20:00:00 18.6 2 Sudeste 6 Sudeste 0 -- -- 70
2019-09-26 19:00:00 22.7 2 Sudoeste 15 Sudoeste 0 -- -- 53
2019-09-26 18:00:00 24.6 6 Sur 15 Sudoeste 0 -- -- 48
2019-09-26 17:00:00 25.4 8 Sudoeste 23 Sudoeste 0 -- -- 48
2019-09-26 16:00:00 25 11 Sudoeste 21 Sudoeste 0 -- -- 47
2019-09-26 15:00:00 24.1 10 Sudoeste 24 Sudoeste 0 -- -- 49
2019-09-26 14:00:00 23.3 10 Sudoeste 23 Sudoeste 0 -- -- 49
2019-09-26 13:00:00 21.7 9 Sudoeste 22 Sudoeste 0 -- -- 53
2019-09-26 12:00:00 17.1 0 Calma 5 Norte 0 -- -- 68
2019-09-26 11:00:00 13.5 0 Calma 5 Norte 0 -- -- 81
2019-09-26 10:00:00 10.9 0 Calma 4 Norte 0 -- -- 93
2019-09-26 09:00:00 9.8 0 Calma 3 Sudoeste 0 -- -- 94
2019-09-26 08:00:00 9.8 0 Calma 3 Noroeste 0 -- -- 93
2019-09-26 07:00:00 10.2 0 Calma 4 Sudeste 0 -- -- 92
2019-09-26 06:00:00 10.5 0 Calma 3 Sudeste 0 -- -- 91
2019-09-26 05:00:00 10.8 0 Calma 3 Nordeste 0 -- -- 91
2019-09-26 04:00:00 11.4 0 Calma 3 Sudeste 0 -- -- 89
2019-09-26 03:00:00 12.1 0 Calma 3 Sudeste 0 -- -- 87
2019-09-26 02:00:00 13 0 Calma 0 Calma 0 -- -- 85
2019-09-26 01:00:00 13.3 0 Calma 0 Calma 0 -- -- 83
2019-09-26 00:00:00 13.4 0 Calma 0 Calma 0 -- -- 84
2019-09-25 23:00:00 13.6 0 Calma 0 Calma 0 -- -- 81
2019-09-25 22:00:00 14.3 0 Calma 0 Calma 0 -- -- 75
2019-09-25 21:00:00 16.2 0 Calma 10 Sudoeste 0 -- -- 70
2019-09-25 20:00:00 19.3 5 Sur 13 Sudoeste 0 -- -- 55
2019-09-25 19:00:00 20.2 3 Sur 10 Sudoeste 0 -- -- 55
2019-09-25 18:00:00 21.4 6 Sudoeste 15 Sur 0 -- -- 50
2019-09-25 17:00:00 22.6 6 Sudoeste 21 Oeste 0 -- -- 47
2019-09-25 16:00:00 22.9 8 Sur 24 Sudoeste 0 -- -- 47
2019-09-25 15:00:00 22.3 14 Sudoeste 27 Sudoeste 0 -- -- 49
2019-09-25 14:00:00 21.3 12 Sudoeste 24 Sudoeste 0 -- -- 51
2019-09-25 13:00:00 20.4 13 Sudoeste 22 Sudoeste 0 -- -- 53
2019-09-25 12:00:00 17.4 5 Sur 13 Sur 0 -- -- 67
2019-09-25 11:00:00 13.4 0 Calma 4 Sudoeste 0 -- -- 84
2019-09-25 10:00:00 10.8 0 Calma 3 Sur 0 -- -- 97
2019-09-25 09:00:00 9.8 0 Calma 4 Sudeste 0 -- -- 96
2019-09-25 08:00:00 9.9 2 Este 4 Sudeste 0 -- -- 95
2019-09-25 07:00:00 10.5 0 Calma 5 Sudeste 0 -- -- 94
2019-09-25 06:00:00 11.2 2 Sudeste 5 Sudeste 0 -- -- 91
2019-09-25 05:00:00 11.5 0 Calma 4 Sudeste 0 -- -- 90
2019-09-25 04:00:00 11.7 0 Calma 5 Sudeste 0 -- -- 89
2019-09-25 03:00:00 12 2 Nordeste 5 Nordeste 0 -- -- 90
2019-09-25 02:00:00 12 4 Sudeste 6 Sudeste 0 -- -- 88
2019-09-25 01:00:00 12.5 0 Calma 6 Sur 0 -- -- 84
2019-09-25 00:00:00 13.2 2 Este 5 Norte 0 -- -- 82
2019-09-24 23:00:00 14.6 2 Sur 9 Sur 0 -- -- 77
2019-09-24 22:00:00 15.7 2 Este 5 Sudeste 0 -- -- 71
2019-09-24 21:00:00 18.9 2 Nordeste 16 Sur 0 -- -- 58
2019-09-24 20:00:00 22.2 9 Sur 33 Sudoeste 0 -- -- 45
2019-09-24 19:00:00 23.7 14 Sudoeste 36 Sudoeste 0 -- -- 42
2019-09-24 18:00:00 24.8 4 Sur 21 Sudoeste 0 -- -- 47
2019-09-24 17:00:00 26.3 9 Sur 24 Sur 0 -- -- 44
2019-09-24 16:00:00 26 8 Sudoeste 25 Sudeste 0 -- -- 42
2019-09-24 15:00:00 25.2 10 Sur 22 Sudoeste 0 -- -- 44
2019-09-24 14:00:00 24.3 6 Sudoeste 19 Sudoeste 0 -- -- 45
2019-09-24 13:00:00 22.2 9 Sudoeste 21 Sur 0 -- -- 50
2019-09-24 12:00:00 16.5 3 Norte 6 Norte 0 -- -- 70
2019-09-24 11:00:00 12.8 0 Calma 6 Norte 0 -- -- 84
2019-09-24 10:00:00 10.4 0 Calma 6 Sudeste 0 -- -- 94
2019-09-24 09:00:00 9.3 0 Calma 5 Sur 0 -- -- 97
2019-09-24 08:00:00 9.3 2 Sudeste 4 Sur 0 -- -- 95
2019-09-24 07:00:00 9.7 2 Sur 5 Sudoeste 0 -- -- 95
2019-09-24 06:00:00 9.7 2 Sudoeste 6 Nordeste 0 -- -- 95
2019-09-24 05:00:00 10 0 Calma 9 Oeste 0 -- -- 94
2019-09-24 04:00:00 10.1 2 Norte 4 Noroeste 0 -- -- 94
2019-09-24 03:00:00 10.5 0 Calma 4 Noroeste 0 -- -- 92
2019-09-24 02:00:00 10.7 0 Calma 3 Sudeste 0 -- -- 92
2019-09-24 01:00:00 11.1 0 Calma 3 Sur 0 -- -- 91
2019-09-24 00:00:00 11.5 0 Calma 3 Norte 0 -- -- 90
2019-09-23 23:00:00 11.9 0 Calma 3 Sudeste 0 -- -- 88
2019-09-23 22:00:00 12.8 0 Calma 4 Sur 0 -- -- 87
2019-09-23 21:00:00 13.9 0 Calma 3 Nordeste 0 -- -- 84
2019-09-23 20:00:00 15.5 0 Calma 4 Sudeste 0 -- -- 77
2019-09-23 19:00:00 19.1 2 Sur 16 Sudoeste 0 -- -- 68
2019-09-23 18:00:00 20.8 6 Sur 16 Sur 0 -- -- 49
2019-09-23 17:00:00 21 7 Sur 16 Sur 0 -- -- 50
2019-09-23 16:00:00 21.2 5 Sudoeste 23 Sudoeste 0 -- -- 49
2019-09-23 15:00:00 20.8 9 Sudoeste 25 Sudoeste 0 -- -- 49
2019-09-23 14:00:00 20.6 6 Sur 16 Sudoeste 0 -- -- 54
2019-09-23 13:00:00 18.1 4 Sudoeste 8 Sudoeste 0 -- -- 67
2019-09-23 12:00:00 14.1 2 Norte 4 Norte 0 -- -- 89
2019-09-23 11:00:00 11.5 0 Calma 3 Norte 0 -- -- 94
2019-09-23 10:00:00 10.6 0 Calma 4 Nordeste 0 -- -- 98
2019-09-23 09:00:00 9.2 0 Calma 3 Sudeste 0 -- -- 99
2019-09-23 08:00:00 9 0 Calma 2 Nordeste 0 -- -- 100
2019-09-23 07:00:00 9 0 Calma 3 Este 0 -- -- 99
2019-09-23 06:00:00 9.2 0 Calma 3 Este 0 -- -- 99
2019-09-23 05:00:00 9.7 0 Calma 2 Sudeste 0 -- -- 99
2019-09-23 04:00:00 10 2 Nordeste 3 Sudeste 0 -- -- 99
2019-09-23 03:00:00 10.7 2 Este 4 Oeste 0 -- -- 99
2019-09-23 02:00:00 11.3 0 Calma 4 Sur 0 -- -- 99
2019-09-23 01:00:00 11.9 0 Calma 3 Sur 0 -- -- 98
2019-09-23 00:00:00 12.9 0 Calma 4 Sur 0 -- -- 99
2019-09-22 23:00:00 13 0 Calma 4 Sur 0 -- -- 97
2019-09-22 22:00:00 13.8 2 Este 4 Sudeste 0 -- -- 96
2019-09-22 21:00:00 15.4 0 Calma 3 Sudeste 0 -- -- 95
2019-09-22 20:00:00 16.5 0 Calma 4 Sudeste 0 -- -- 95
2019-09-22 19:00:00 17.8 0 Calma 4 Oeste 0 -- -- 93
2019-09-22 18:00:00 18.6 3 Sudoeste 8 Sudoeste 0 -- -- 88
2019-09-22 17:00:00 18.2 3 Norte 6 Sudoeste 1.2 -- -- 87
2019-09-22 16:00:00 17.4 2 Norte 9 Oeste 9.2 -- -- 92
2019-09-22 15:00:00 19.5 3 Sudoeste 19 Sudoeste 0 -- -- 80
2019-09-22 14:00:00 20.3 5 Sudoeste 14 Sudoeste 0 -- -- 73
2019-09-22 13:00:00 18.8 4 Sudoeste 21 Sur 0 -- -- 87
2019-09-22 12:00:00 17.5 3 Norte 12 Sudoeste 0.2 -- -- 94
2019-09-22 11:00:00 16.3 3 Oeste 6 Norte 0 -- -- 97
2019-09-22 10:00:00 15.6 0 Calma 6 Norte 0.4 -- -- 99
2019-09-22 09:00:00 15.2 0 Calma 4 Sur 0 -- -- 99
2019-09-22 08:00:00 15.1 0 Calma 4 Sudeste 0 -- -- 99
2019-09-22 07:00:00 15 0 Calma 4 Oeste 5 -- -- 99
2019-09-22 06:00:00 15.1 0 Calma 9 Sudoeste 1.2 -- -- 99
2019-09-22 05:00:00 15.1 3 Sur 5 Sudoeste 2 -- -- 98
2019-09-22 04:00:00 15.1 0 Calma 4 Sur 0.4 -- -- 98
2019-09-22 03:00:00 15.1 3 Noroeste 10 Oeste 4.8 -- -- 98
2019-09-22 02:00:00 15.1 2 Oeste 3 Norte 1.2 -- -- 97
2019-09-22 01:00:00 15.2 0 Calma 3 Nordeste 0.8 -- -- 95
2019-09-22 00:00:00 15.3 3 Nordeste 5 Norte 0 -- -- 92
2019-09-21 23:00:00 15.1 0 Calma 5 Sur 0 -- -- 90
2019-09-21 22:00:00 15.7 0 Calma 4 Sur 0 -- -- 88
2019-09-21 21:00:00 15.9 0 Calma 3 Sudeste 0 -- -- 87
2019-09-21 20:00:00 17 0 Calma 4 Sur 0 -- -- 83
2019-09-21 19:00:00 18.3 0 Calma 4 Sudeste 0 -- -- 83
2019-09-21 18:00:00 20.2 0 Calma 6 Norte 0 -- -- 76
2019-09-21 17:00:00 20.8 3 Norte 14 Sudoeste 0.2 -- -- 75
2019-09-21 16:00:00 23 4 Sudoeste 13 Sudoeste 0 -- -- 52
2019-09-21 15:00:00 21.6 6 Sudoeste 16 Sudoeste 0 -- -- 57
2019-09-21 14:00:00 20.9 8 Sudoeste 18 Sudoeste 0 -- -- 58
2019-09-21 13:00:00 19.8 3 Sur 6 Noroeste 0 -- -- 70
2019-09-21 12:00:00 17.4 0 Calma 6 Norte 0 -- -- 77
2019-09-21 11:00:00 15.4 2 Sudeste 5 Noroeste 0 -- -- 91
2019-09-21 10:00:00 14.7 0 Calma 5 Sudeste 0 -- -- 95
2019-09-21 09:00:00 14.3 0 Calma 3 Sur 0 -- -- 93
2019-09-21 08:00:00 14.2 0 Calma 3 Noroeste 0 -- -- 93
2019-09-21 07:00:00 14 0 Calma 3 Nordeste 0 -- -- 93
2019-09-21 06:00:00 13.8 0 Calma 3 Norte 0 -- -- 93
2019-09-21 05:00:00 13.6 0 Calma 2 Sudeste 0 -- -- 91
2019-09-21 04:00:00 14 0 Calma 4 Nordeste 0 -- -- 91
2019-09-21 03:00:00 14.7 0 Calma 4 Sudeste 0 -- -- 88
2019-09-21 02:00:00 15.5 0 Calma 3 Sudeste 0 -- -- 86
2019-09-21 01:00:00 16.1 0 Calma 4 Sur 0 -- -- 84
2019-09-21 00:00:00 17.1 0 Calma 6 Nordeste 0 -- -- 78
2019-09-20 23:00:00 19.5 4 Sur 23 Sudoeste 0 -- -- 70
2019-09-20 22:00:00 20.1 8 Sur 21 Sudoeste 0 -- -- 64
2019-09-20 21:00:00 21 5 Sudoeste 18 Sudoeste 0 -- -- 61
2019-09-20 20:00:00 19.1 2 Sudeste 6 Norte 0 -- -- 75
2019-09-20 19:00:00 21.9 3 Sur 12 Sudoeste 0 -- -- 64
2019-09-20 18:00:00 23.8 3 Sudoeste 24 Sudoeste 0 -- -- 52
2019-09-20 17:00:00 24.4 7 Sudoeste 25 Sudoeste 0 -- -- 51
2019-09-20 16:00:00 24.5 10 Sudoeste 23 Sudoeste 0 -- -- 49
2019-09-20 15:00:00 24.2 12 Sudoeste 22 Sudoeste 0 -- -- 51
2019-09-20 14:00:00 22.7 2 Este 5 Este 0 -- -- 60
2019-09-20 13:00:00 20 3 Norte 5 Norte 0 -- -- 76
2019-09-20 12:00:00 18.2 2 Norte 6 Noroeste 0 -- -- 81
2019-09-20 11:00:00 16.2 3 Norte 6 Norte 0 -- -- 90
2019-09-20 10:00:00 14.4 0 Calma 8 Noroeste 0 -- -- 97
2019-09-20 09:00:00 13.6 0 Calma 6 Norte 0 -- -- 98
2019-09-20 08:00:00 13.1 0 Calma 3 Sudeste 0 -- -- 98
2019-09-20 07:00:00 13.2 0 Calma 2 Norte 0 -- -- 99
2019-09-20 06:00:00 13 0 Calma 3 Sudeste 0 -- -- 99
2019-09-20 05:00:00 13.2 0 Calma 3 Nordeste 0 -- -- 98
2019-09-20 04:00:00 13.3 0 Calma 3 Este 0 -- -- 99
2019-09-20 03:00:00 13.3 0 Calma 4 Sudeste 0 -- -- 97
2019-09-20 02:00:00 14 0 Calma 4 Sudoeste 0.4 -- -- 96
2019-09-20 01:00:00 14.8 0 Calma 3 Sudeste 0.6 -- -- 97
2019-09-20 00:00:00 15.1 0 Calma 5 Sur 7.8 -- -- 97
2019-09-19 23:00:00 15.4 3 Este 9 Sur 9.6 -- -- 96
2019-09-19 22:00:00 15.5 0 Calma 4 Sudeste 0 -- -- 94
2019-09-19 21:00:00 15.8 0 Calma 4 Este 0.2 -- -- 91
2019-09-19 20:00:00 17 3 Sudeste 7 Oeste 0.4 -- -- 88
2019-09-19 19:00:00 19.3 4 Noroeste 17 Norte 0 -- -- 73
2019-09-19 18:00:00 22.1 5 Norte 14 Nordeste 0 -- -- 50
2019-09-19 17:00:00 26 5 Norte 18 Norte 0 -- -- 41
2019-09-19 16:00:00 25.1 8 Sudoeste 15 Sudoeste 0 -- -- 43
2019-09-19 15:00:00 24 4 Sudoeste 10 Norte 0 -- -- 47
2019-09-19 14:00:00 23.5 7 Sudoeste 23 Sudoeste 0 -- -- 50
2019-09-19 13:00:00 25.4 9 Sudoeste 28 Oeste 0 -- -- 44
2019-09-19 12:00:00 20.1 0 Calma 8 Norte 0 -- -- 57
2019-09-19 11:00:00 16.5 0 Calma 6 Noroeste 0 -- -- 68
2019-09-19 10:00:00 13.8 2 Norte 8 Nordeste 0 -- -- 78
2019-09-19 09:00:00 12.5 0 Calma 4 Sudoeste 0 -- -- 83
2019-09-19 08:00:00 12.2 0 Calma 4 Noroeste 0 -- -- 83
2019-09-19 07:00:00 12.5 0 Calma 5 Norte 0 -- -- 82
2019-09-19 06:00:00 13.1 0 Calma 4 Sudoeste 0 -- -- 80
2019-09-19 05:00:00 13.8 0 Calma 7 Norte 0 -- -- 76
2019-09-19 04:00:00 15.1 0 Calma 10 Norte 0 -- -- 71
2019-09-19 03:00:00 15 2 Este 6 Este 0 -- -- 72
2019-09-19 02:00:00 15.1 0 Calma 5 Oeste 0 -- -- 72
2019-09-19 01:00:00 14.5 0 Calma 4 Sudoeste 0 -- -- 74
2019-09-19 00:00:00 14.4 0 Calma 3 Norte 0 -- -- 74
2019-09-18 23:00:00 14.9 0 Calma 4 Sudeste 0 -- -- 70
2019-09-18 22:00:00 16.3 0 Calma 5 Sur 0 -- -- 65
2019-09-18 21:00:00 17.8 0 Calma 12 Oeste 0 -- -- 60
2019-09-18 20:00:00 20 4 Sudoeste 37 Sur 0 -- -- 51
2019-09-18 19:00:00 22.5 17 Sudoeste 42 Oeste 0 -- -- 42
2019-09-18 18:00:00 26.6 12 Sudoeste 27 Sudoeste 0 -- -- 40
2019-09-18 17:00:00 27.9 8 Oeste 24 Sudoeste 0 -- -- 35
2019-09-18 16:00:00 27 9 Sudoeste 32 Sudoeste 0 -- -- 39
2019-09-18 15:00:00 27.7 10 Sudoeste 25 Sudoeste 0 -- -- 37
2019-09-18 14:00:00 26.3 10 Sudoeste 28 Sudoeste 0 -- -- 42
2019-09-18 13:00:00 25.8 10 Sudoeste 25 Sudoeste 0 -- -- 43
2019-09-18 12:00:00 22.3 2 Noroeste 8 Norte 0 -- -- 55
2019-09-18 11:00:00 18.3 2 Norte 12 Norte 0 -- -- 69
2019-09-18 10:00:00 16.2 3 Nordeste 10 Noroeste 0 -- -- 76
2019-09-18 09:00:00 14.4 0 Calma 14 Norte 0 -- -- 84
2019-09-18 08:00:00 14.4 4 Norte 14 Norte 0 -- -- 83
2019-09-18 07:00:00 15.1 0 Calma 11 Norte 0 -- -- 80
2019-09-18 06:00:00 16.6 3 Noroeste 20 Norte 0 -- -- 75
2019-09-18 05:00:00 17.7 2 Norte 18 Norte 0 -- -- 70
2019-09-18 04:00:00 18.5 4 Nordeste 15 Norte 0 -- -- 67
2019-09-18 03:00:00 19 3 Oeste 13 Norte 0 -- -- 70
2019-09-18 02:00:00 18.7 0 Calma 12 Norte 0 -- -- 73
2019-09-18 01:00:00 18.7 3 Este 11 Norte 0 -- -- 71
2019-09-18 00:00:00 19.3 0 Calma 9 Nordeste 0 -- -- 68
2019-09-17 23:00:00 20 4 Norte 15 Norte 0 -- -- 66
2019-09-17 22:00:00 21 4 Norte 14 Norte 0 -- -- 60
2019-09-17 21:00:00 21.8 3 Sudoeste 10 Sudoeste 0 -- -- 60
2019-09-15 18:00:00 -- -- -- -- -- -- -- -- --
2019-09-15 17:00:00 27.1 12 Sudoeste 29 Sudoeste 0 -- -- 40
2019-09-15 16:00:00 28.5 15 Sudoeste 35 Sudoeste 0 -- -- 38
2019-09-15 15:00:00 28.8 11 Sudoeste 21 Oeste 0 -- -- 38
2019-09-15 14:00:00 27.5 8 Sudoeste 15 Sur 0 -- -- 42
2019-09-15 13:00:00 24.8 8 Sudoeste 14 Sudoeste 0 -- -- 53
2019-09-15 12:00:00 20.5 0 Calma 4 Sudoeste 0 -- -- 68
2019-09-15 11:00:00 18 0 Calma 4 Norte 0 -- -- 80
2019-09-15 10:00:00 16 2 Norte 6 Sur 0 -- -- 94
2019-09-15 09:00:00 14.6 0 Calma 6 Sur 0 -- -- 95
2019-09-15 08:00:00 14.4 3 Nordeste 12 Este 0 -- -- 95
2019-09-15 07:00:00 14.5 2 Sudeste 5 Sudeste 2 -- -- 95
2019-09-15 06:00:00 14.8 2 Sudeste 7 Oeste 0.4 -- -- 93
2019-09-15 05:00:00 15 2 Sudeste 6 Oeste 0 -- -- 88
2019-09-15 04:00:00 14.9 2 Este 6 Norte 0 -- -- 88
2019-09-15 03:00:00 14.9 0 Calma 6 Este 0.4 -- -- 91
2019-09-15 02:00:00 16.1 2 Este 6 Este 0 -- -- 84
2019-09-15 01:00:00 16.5 0 Calma 4 Sudoeste 0 -- -- 72
2019-09-15 00:00:00 16.4 2 Sur 5 Sudeste 0 -- -- 73